Time;durP1;ratioP1;P1;durP2;ratioP2;P2;SDS_P1;SDS_P2;PMS_P1;PMS_P2;Temp;Humidity;BMP_temperature;BMP_pressure;BME280_temperature;BME280_humidity;BME280_pressure;Samples;Min_cycle;Max_cycle;Signal;HPM_P1;HPM_P2
2021/10/08 00:03:57;;;;;;;21.70;12.80;;;;;8.30;102446.00;;;;10373942;28;20573;-78
2021/10/08 00:08:58;;;;;;;21.17;12.50;;;;;8.20;102457.00;;;;10376280;28;20217;-76
2021/10/08 00:14:00;;;;;;;17.33;12.13;;;;;8.20;102454.00;;;;10358529;28;20199;-76
2021/10/08 00:19:02;;;;;;;20.77;11.67;;;;;8.10;102461.00;;;;10355888;28;20226;-76
2021/10/08 00:24:05;;;;;;;19.30;12.03;;;;;8.10;102466.00;;;;10354970;28;20305;-78
2021/10/08 00:29:11;;;;;;;14.93;11.90;;;;;8.10;102474.00;;;;10359340;28;20217;-79
2021/10/08 00:34:12;;;;;;;18.30;12.63;;;;;8.00;102468.00;;;;10356212;28;20191;-79
2021/10/08 00:39:13;;;;;;;17.60;11.33;;;;;8.00;102471.00;;;;10357354;28;20309;-77
2021/10/08 00:44:15;;;;;;;25.80;11.63;;;;;7.90;102474.00;;;;10357382;28;20685;-79
2021/10/08 00:49:16;;;;;;;16.23;11.63;;;;;7.80;102464.00;;;;10340775;28;20201;-79
2021/10/08 00:54:17;;;;;;;17.33;12.13;;;;;7.80;102473.00;;;;10355938;28;20214;-79
2021/10/08 00:59:19;;;;;;;15.53;10.70;;;;;7.70;102463.00;;;;10359012;28;20633;-79
2021/10/08 01:04:23;;;;;;;22.27;11.70;;;;;7.70;102470.00;;;;10390041;28;20194;-77
2021/10/08 01:09:24;;;;;;;18.53;12.43;;;;;7.60;102464.00;;;;10354587;28;20775;-79
2021/10/08 01:14:26;;;;;;;16.10;11.90;;;;;7.60;102475.00;;;;10381314;28;20237;-79
2021/10/08 01:19:30;;;;;;;60.90;17.57;;;;;7.70;102463.00;;;;10339254;28;20219;-76
2021/10/08 01:24:35;;;;;;;46.93;14.47;;;;;7.70;102471.00;;;;10379667;28;20256;-79
2021/10/08 01:29:56;;;;;;;43.93;14.90;;;;;7.60;102458.00;;;;10380044;28;20205;-79
2021/10/08 01:35:04;;;;;;;41.33;15.13;;;;;7.60;102465.00;;;;10336523;28;20212;-79
2021/10/08 01:40:08;;;;;;;37.83;14.47;;;;;7.50;102467.00;;;;10358243;28;20309;-79
2021/10/08 01:45:15;;;;;;;25.60;13.53;;;;;7.50;102455.00;;;;10367426;28;20230;-78
2021/10/08 01:50:18;;;;;;;24.37;11.77;;;;;7.40;102461.00;;;;10382810;28;20198;-78
2021/10/08 01:55:21;;;;;;;25.00;11.80;;;;;7.40;102461.00;;;;10345174;28;20219;-79
2021/10/08 02:00:30;;;;;;;51.73;13.10;;;;;7.30;102465.00;;;;10373121;28;20313;-79
2021/10/08 02:05:49;;;;;;;27.20;11.97;;;;;7.30;102452.00;;;;10379836;28;20202;-78
2021/10/08 02:10:51;;;;;;;21.77;12.50;;;;;7.30;102449.00;;;;10379143;28;20637;-79
2021/10/08 02:15:54;;;;;;;21.33;11.97;;;;;7.30;102457.00;;;;10351415;28;20211;-79
2021/10/08 02:20:56;;;;;;;28.07;12.50;;;;;7.20;102447.00;;;;10380616;28;20222;-79
2021/10/08 02:25:58;;;;;;;21.83;12.10;;;;;7.20;102455.00;;;;10354767;28;20226;-76
2021/10/08 02:30:59;;;;;;;23.13;11.70;;;;;7.20;102460.00;;;;10353551;28;20206;-78
2021/10/08 02:36:07;;;;;;;15.80;11.13;;;;;7.10;102465.00;;;;10370571;28;20578;-78
2021/10/08 02:41:09;;;;;;;14.10;10.90;;;;;7.10;102467.00;;;;10378978;28;20224;-78
2021/10/08 02:46:10;;;;;;;18.80;10.43;;;;;7.00;102461.00;;;;10347274;28;20886;-78
2021/10/08 02:51:12;;;;;;;20.80;10.87;;;;;7.00;102459.00;;;;10379256;28;20624;-78
2021/10/08 02:56:14;;;;;;;29.80;11.70;;;;;7.00;102462.00;;;;10358350;28;20226;-78
2021/10/08 03:01:15;;;;;;;55.20;13.13;;;;;7.00;102475.00;;;;10341941;28;20578;-78
2021/10/08 03:06:17;;;;;;;29.73;14.13;;;;;7.00;102461.00;;;;10377757;28;20769;-78
2021/10/08 03:11:19;;;;;;;29.07;13.90;;;;;7.00;102457.00;;;;10410060;28;20284;-77
2021/10/08 03:16:21;;;;;;;33.17;12.87;;;;;6.90;102456.00;;;;10387001;28;20365;-79
2021/10/08 03:21:23;;;;;;;35.20;12.20;;;;;6.90;102452.00;;;;10378725;28;20222;-78
2021/10/08 03:26:25;;;;;;;18.40;11.53;;;;;6.80;102459.00;;;;10336988;28;20258;-78
2021/10/08 03:31:26;;;;;;;18.97;10.73;;;;;6.80;102463.00;;;;10406907;28;20201;-78
2021/10/08 03:36:41;;;;;;;22.83;12.67;;;;;6.70;102460.00;;;;10337093;28;20203;-78
2021/10/08 03:41:43;;;;;;;27.67;13.43;;;;;6.70;102456.00;;;;10364692;28;20302;-77
2021/10/08 03:46:51;;;;;;;19.90;13.40;;;;;6.80;102458.00;;;;10393334;28;20221;-78
2021/10/08 03:51:53;;;;;;;21.53;12.80;;;;;6.80;102469.00;;;;10394691;28;20191;-78
2021/10/08 03:56:54;;;;;;;29.50;14.93;;;;;6.80;102456.00;;;;10377633;28;20214;-78
2021/10/08 04:01:55;;;;;;;67.13;16.57;;;;;6.80;102465.00;;;;10374351;28;20272;-78
2021/10/08 04:07:00;;;;;;;56.10;16.70;;;;;6.80;102473.00;;;;10372754;28;20205;-78
2021/10/08 04:12:03;;;;;;;52.07;17.63;;;;;6.80;102473.00;;;;10387968;28;20252;-78
2021/10/08 04:17:05;;;;;;;43.20;16.40;;;;;6.80;102476.00;;;;10325663;28;20264;-78
2021/10/08 04:22:07;;;;;;;39.30;16.77;;;;;6.70;102477.00;;;;10383948;28;20223;-79
2021/10/08 04:27:08;;;;;;;37.37;16.87;;;;;6.70;102484.00;;;;10359951;28;20290;-79
2021/10/08 04:32:10;;;;;;;50.43;18.10;;;;;6.70;102489.00;;;;10354456;28;20231;-79
2021/10/08 04:37:11;;;;;;;45.87;16.87;;;;;6.70;102485.00;;;;10390460;28;20210;-76
2021/10/08 04:42:14;;;;;;;43.63;16.00;;;;;6.60;102487.00;;;;10370500;28;20692;-78
2021/10/08 04:47:15;;;;;;;51.40;17.90;;;;;6.60;102483.00;;;;10355488;28;20254;-78
2021/10/08 04:52:17;;;;;;;31.93;16.73;;;;;6.50;102484.00;;;;10340080;28;20195;-78
2021/10/08 04:57:21;;;;;;;56.50;35.47;;;;;6.50;102490.00;;;;10406810;28;20306;-78
2021/10/08 05:02:22;;;;;;;38.53;20.83;;;;;6.50;102487.00;;;;10370106;28;20223;-78
2021/10/08 05:07:24;;;;;;;36.23;19.00;;;;;6.50;102487.00;;;;10357881;28;20199;-78
2021/10/08 05:12:26;;;;;;;31.43;15.83;;;;;6.40;102498.00;;;;10378657;28;20199;-78
2021/10/08 05:17:30;;;;;;;36.37;18.03;;;;;6.40;102495.00;;;;10380645;28;20248;-78
2021/10/08 05:22:31;;;;;;;23.13;14.77;;;;;6.30;102506.00;;;;10377972;28;20247;-78
2021/10/08 05:27:32;;;;;;;24.10;15.20;;;;;6.30;102509.00;;;;10380662;28;20203;-78
2021/10/08 05:32:36;;;;;;;23.80;15.23;;;;;6.20;102518.00;;;;10389553;28;20218;-78
2021/10/08 05:37:39;;;;;;;38.03;15.57;;;;;6.20;102520.00;;;;10394413;28;20207;-78
2021/10/08 05:42:41;;;;;;;27.27;15.90;;;;;6.20;102521.00;;;;10363544;28;20636;-78
2021/10/08 05:47:43;;;;;;;34.77;17.03;;;;;6.30;102521.00;;;;10360685;28;20207;-78
2021/10/08 05:52:45;;;;;;;39.73;17.90;;;;;6.30;102527.00;;;;10396033;28;20688;-78
2021/10/08 05:57:48;;;;;;;33.43;17.97;;;;;6.30;102525.00;;;;10377010;28;20263;-78
2021/10/08 06:02:50;;;;;;;43.93;20.37;;;;;6.40;102522.00;;;;10345853;28;20210;-78
2021/10/08 06:07:56;;;;;;;33.13;18.83;;;;;6.40;102529.00;;;;10386837;28;20207;-78
2021/10/08 06:12:59;;;;;;;40.20;21.27;;;;;6.50;102532.00;;;;10397416;28;20191;-78
2021/10/08 06:18:03;;;;;;;37.67;20.37;;;;;6.60;102535.00;;;;10337080;28;20542;-79
2021/10/08 06:23:06;;;;;;;43.57;23.10;;;;;6.60;102534.00;;;;10361927;28;20199;-78
2021/10/08 06:28:07;;;;;;;47.77;19.70;;;;;6.70;102540.00;;;;10362445;28;20206;-78
2021/10/08 06:33:09;;;;;;;60.37;21.67;;;;;6.80;102548.00;;;;10362215;28;20192;-78
2021/10/08 06:38:11;;;;;;;52.40;24.77;;;;;6.90;102542.00;;;;10339360;28;20701;-79
2021/10/08 06:43:13;;;;;;;49.83;24.40;;;;;7.00;102560.00;;;;10336307;28;20712;-78
2021/10/08 06:48:44;;;;;;;103.67;57.73;;;;;7.10;102547.00;;;;10357360;28;20296;-78
2021/10/08 06:53:45;;;;;;;63.30;24.33;;;;;7.20;102553.00;;;;10409764;28;20482;-78
2021/10/08 06:58:51;;;;;;;72.83;22.40;;;;;7.30;102548.00;;;;10375909;28;20211;-79
2021/10/08 07:03:54;;;;;;;99.90;23.80;;;;;7.50;102552.00;;;;10375649;28;20231;-76
2021/10/08 07:08:56;;;;;;;68.60;22.60;;;;;7.70;102564.00;;;;10383902;28;20218;-76
2021/10/08 07:13:58;;;;;;;59.77;23.33;;;;;7.90;102562.00;;;;10373374;28;20297;-79
2021/10/08 07:19:07;;;;;;;88.10;24.70;;;;;8.00;102568.00;;;;10358087;28;20708;-78
2021/10/08 07:24:12;;;;;;;97.73;22.57;;;;;8.20;102577.00;;;;10391685;28;20199;-78
2021/10/08 07:29:13;;;;;;;92.83;23.33;;;;;8.20;102570.00;;;;10409165;28;20203;-79
2021/10/08 07:34:14;;;;;;;126.33;25.00;;;;;8.30;102571.00;;;;10406500;28;20210;-79
2021/10/08 07:39:16;;;;;;;91.73;27.17;;;;;8.30;102571.00;;;;10357557;28;20218;-79
2021/10/08 07:44:17;;;;;;;138.30;27.57;;;;;8.50;102580.00;;;;10374177;28;20198;-76
2021/10/08 07:49:18;;;;;;;157.03;27.57;;;;;8.70;102575.00;;;;10369166;28;20202;-77
2021/10/08 07:54:20;;;;;;;170.93;26.87;;;;;8.80;102572.00;;;;10357427;28;20590;-76
2021/10/08 07:59:21;;;;;;;117.33;26.50;;;;;9.00;102579.00;;;;10402537;28;20225;-76
2021/10/08 08:04:22;;;;;;;147.70;27.13;;;;;9.10;102567.00;;;;10381352;28;20238;-76
2021/10/08 08:09:23;;;;;;;122.07;27.67;;;;;9.40;102583.00;;;;10346035;28;20982;-76
2021/10/08 08:14:25;;;;;;;160.77;28.10;;;;;9.50;102589.00;;;;10372623;28;20203;-77
2021/10/08 08:19:26;;;;;;;116.23;27.00;;;;;9.70;102593.00;;;;10374386;28;20214;-78
2021/10/08 08:24:27;;;;;;;158.87;31.30;;;;;9.80;102586.00;;;;10372715;28;20203;-76
2021/10/08 08:29:28;;;;;;;145.97;27.83;;;;;10.00;102591.00;;;;10388698;28;20260;-76
2021/10/08 08:34:30;;;;;;;108.50;28.43;;;;;10.20;102595.00;;;;10355411;28;20661;-76
2021/10/08 08:39:33;;;;;;;89.07;27.30;;;;;10.50;102597.00;;;;10351312;28;20306;-76
2021/10/08 08:44:35;;;;;;;185.13;29.10;;;;;10.60;102601.00;;;;10383907;28;20249;-76
2021/10/08 08:49:36;;;;;;;99.10;28.57;;;;;10.70;102598.00;;;;10356243;28;21037;-76
2021/10/08 08:54:40;;;;;;;116.90;27.23;;;;;11.10;102602.00;;;;10370698;28;20254;-76
2021/10/08 09:00:19;;;;;;;126.00;26.80;;;;;11.30;102605.00;;;;10387412;28;20610;-76
2021/10/08 09:05:25;;;;;;;109.70;28.07;;;;;11.50;102603.00;;;;10311600;28;20206;-76
2021/10/08 09:10:28;;;;;;;130.53;27.37;;;;;11.70;102615.00;;;;10371469;28;20207;-76
2021/10/08 09:15:44;;;;;;;103.40;26.90;;;;;11.80;102617.00;;;;10358788;28;20202;-76
2021/10/08 09:21:12;;;;;;;110.77;27.77;;;;;12.10;102623.00;;;;10368037;28;20787;-75
2021/10/08 09:26:23;;;;;;;72.60;30.30;;;;;12.30;102624.00;;;;10354384;28;20203;-76
2021/10/08 09:31:43;;;;;;;52.47;29.07;;;;;12.60;102629.00;;;;10395022;28;20214;-77
2021/10/08 09:36:58;;;;;;;50.30;29.50;;;;;12.50;102624.00;;;;10385754;28;20940;-76
2021/10/08 09:42:05;;;;;;;52.70;28.57;;;;;12.90;102620.00;;;;10378658;28;20218;-77
2021/10/08 09:47:15;;;;;;;48.67;27.00;;;;;12.90;102615.00;;;;10372473;28;20203;-77
2021/10/08 09:52:26;;;;;;;45.47;27.90;;;;;13.00;102622.00;;;;10377158;28;20207;-76
2021/10/08 09:57:28;;;;;;;43.33;28.50;;;;;13.30;102629.00;;;;10354371;28;20705;-76
2021/10/08 10:02:29;;;;;;;42.93;28.27;;;;;13.50;102630.00;;;;10409867;28;20225;-76
2021/10/08 10:07:30;;;;;;;44.73;28.83;;;;;14.10;102634.00;;;;10394222;28;20617;-77
2021/10/08 10:12:34;;;;;;;39.67;26.97;;;;;14.00;102643.00;;;;10377493;28;20203;-76
2021/10/08 10:17:37;;;;;;;44.00;28.90;;;;;14.20;102635.00;;;;10337297;28;20211;-75
2021/10/08 10:22:39;;;;;;;35.67;26.43;;;;;14.20;102626.00;;;;10360040;28;20689;-76
2021/10/08 10:27:42;;;;;;;31.03;23.60;;;;;15.50;102631.00;;;;10370165;28;20196;-76
2021/10/08 10:32:46;;;;;;;23.77;21.13;;;;;16.10;102641.00;;;;10362882;28;20283;-75
2021/10/08 10:37:47;;;;;;;18.77;16.77;;;;;15.70;102640.00;;;;10339397;28;20203;-76
2021/10/08 10:43:27;;;;;;;19.70;17.33;;;;;15.90;102627.00;;;;10345903;28;20244;-76
2021/10/08 10:48:31;;;;;;;20.17;17.70;;;;;16.10;102627.00;;;;10348651;28;20223;-76
2021/10/08 10:53:49;;;;;;;19.13;17.08;;;;;16.40;102624.00;;;;10321759;28;20227;-76
2021/10/08 10:59:26;;;;;;;23.42;18.40;;;;;16.60;102614.00;;;;10364435;28;20278;-76
2021/10/08 11:04:28;;;;;;;21.88;19.15;;;;;16.80;102609.00;;;;10370170;28;20207;-76
2021/10/08 11:09:29;;;;;;;18.42;16.33;;;;;16.80;102604.00;;;;10392489;28;20206;-76
2021/10/08 11:14:31;;;;;;;18.05;16.05;;;;;17.00;102595.00;;;;10382959;28;20199;-76
2021/10/08 11:19:40;;;;;;;16.95;14.57;;;;;17.20;102586.00;;;;10352386;28;20230;-76
2021/10/08 11:24:41;;;;;;;18.65;14.73;;;;;17.50;102576.00;;;;10347927;28;20218;-77
2021/10/08 11:29:43;;;;;;;16.50;13.82;;;;;17.70;102577.00;;;;10400582;28;20205;-76
2021/10/08 11:34:49;;;;;;;16.40;14.77;;;;;17.90;102564.00;;;;10362042;28;20261;-77
2021/10/08 11:39:52;;;;;;;16.38;14.18;;;;;18.10;102563.00;;;;10373491;28;20223;-76
2021/10/08 11:50:13;;;;;;;15.13;13.32;;;;;18.40;102548.00;;;;10357445;28;20198;-76
2021/10/08 11:55:18;;;;;;;16.05;14.15;;;;;18.50;102547.00;;;;10358730;28;20272;-77
2021/10/08 12:00:22;;;;;;;16.92;14.18;;;;;18.60;102538.00;;;;10374295;28;20230;-77
2021/10/08 12:05:23;;;;;;;15.05;13.27;;;;;18.70;102520.00;;;;10391761;28;20195;-76
2021/10/08 12:10:24;;;;;;;12.73;11.35;;;;;18.60;102521.00;;;;10409148;28;20309;-76
2021/10/08 12:15:30;;;;;;;14.18;12.50;;;;;18.80;102511.00;;;;10389984;28;20199;-76
2021/10/08 12:20:34;;;;;;;13.80;10.80;;;;;19.00;102501.00;;;;10372505;28;20214;-77
2021/10/08 12:25:39;;;;;;;13.73;11.82;;;;;19.20;102505.00;;;;10362806;28;20744;-76
2021/10/08 12:30:50;;;;;;;12.63;10.65;;;;;19.20;102490.00;;;;10366649;28;20202;-76
2021/10/08 12:36:20;;;;;;;14.75;10.57;;;;;19.10;102485.00;;;;10353643;28;20659;-76
2021/10/08 12:41:28;;;;;;;15.90;10.63;;;;;19.20;102479.00;;;;10340854;28;20784;-76
2021/10/08 12:46:35;;;;;;;12.68;10.25;;;;;19.30;102485.00;;;;10389380;28;20213;-76
2021/10/08 12:51:52;;;;;;;14.50;11.50;;;;;19.40;102477.00;;;;10370851;28;20681;-76
2021/10/08 12:57:11;;;;;;;14.07;10.43;;;;;19.30;102470.00;;;;10357375;28;20226;-76
2021/10/08 13:02:12;;;;;;;15.02;11.23;;;;;19.30;102471.00;;;;10355118;28;20216;-77
2021/10/08 13:07:15;;;;;;;15.68;12.07;;;;;19.20;102458.00;;;;10344758;28;20195;-77
2021/10/08 13:12:17;;;;;;;14.73;11.48;;;;;19.00;102465.00;;;;10381353;28;20276;-77
2021/10/08 13:17:18;;;;;;;13.43;11.35;;;;;18.90;102460.00;;;;10332115;28;20209;-77
2021/10/08 13:22:24;;;;;;;14.25;11.43;;;;;18.80;102462.00;;;;10380303;28;20222;-77
2021/10/08 13:27:31;;;;;;;15.85;12.00;;;;;18.60;102452.00;;;;10396815;28;20257;-76
2021/10/08 13:32:32;;;;;;;14.20;11.65;;;;;18.60;102455.00;;;;10381583;28;20202;-76
2021/10/08 13:37:33;;;;;;;16.05;11.50;;;;;18.60;102436.00;;;;10344916;28;20571;-77
2021/10/08 13:42:34;;;;;;;12.25;9.85;;;;;18.60;102422.00;;;;10346668;28;20225;-77
2021/10/08 13:47:36;;;;;;;12.15;9.75;;;;;18.70;102421.00;;;;10340478;28;20249;-77
2021/10/08 13:52:37;;;;;;;10.70;9.07;;;;;18.80;102415.00;;;;10353471;28;20733;-77
2021/10/08 13:57:38;;;;;;;10.55;8.52;;;;;18.70;102417.00;;;;10358623;28;20261;-77
2021/10/08 14:03:00;;;;;;;12.02;8.70;;;;;18.50;102426.00;;;;10377444;28;20230;-76
2021/10/08 14:13:04;;;;;;;7.22;6.10;;;;;17.80;102413.00;;;;10353288;28;20206;-77
2021/10/08 14:18:06;;;;;;;6.97;6.28;;;;;17.60;102403.00;;;;10361452;28;20788;-77
2021/10/08 14:23:08;;;;;;;10.30;7.15;;;;;17.70;102398.00;;;;10348890;28;20222;-77
2021/10/08 14:28:11;;;;;;;7.95;6.05;;;;;17.50;102394.00;;;;10361727;28;20195;-77
2021/10/08 14:33:12;;;;;;;7.38;6.00;;;;;17.70;102384.00;;;;10391473;28;20207;-77
2021/10/08 14:38:15;;;;;;;7.05;6.03;;;;;17.60;102388.00;;;;10323402;28;20222;-77
2021/10/08 14:43:16;;;;;;;6.72;6.03;;;;;18.20;102393.00;;;;10342928;28;20206;-77
2021/10/08 14:48:17;;;;;;;8.48;6.97;;;;;17.50;102397.00;;;;10352881;28;20356;-77
2021/10/08 14:53:22;;;;;;;9.45;6.43;;;;;17.40;102378.00;;;;10322744;28;20222;-77
2021/10/08 14:58:24;;;;;;;8.63;6.30;;;;;17.20;102386.00;;;;10383638;28;20210;-77
2021/10/08 15:03:27;;;;;;;9.38;7.18;;;;;17.30;102377.00;;;;10375372;28;20237;-78
2021/10/08 15:08:28;;;;;;;10.65;6.95;;;;;16.90;102376.00;;;;10351265;28;20600;-77
2021/10/08 15:13:29;;;;;;;10.85;6.07;;;;;16.70;102372.00;;;;10349807;28;20203;-77
2021/10/08 15:18:30;;;;;;;9.30;6.60;;;;;16.60;102369.00;;;;10334936;28;20203;-77
2021/10/08 15:23:32;;;;;;;8.45;6.25;;;;;16.50;102370.00;;;;10356606;28;20202;-76
2021/10/08 15:28:33;;;;;;;10.43;6.28;;;;;16.40;102353.00;;;;10368622;28;20237;-77
2021/10/08 15:33:35;;;;;;;9.10;6.15;;;;;16.30;102355.00;;;;10307927;28;20748;-77
2021/10/08 15:38:36;;;;;;;8.77;6.65;;;;;16.10;102348.00;;;;10356883;28;20554;-76
2021/10/08 15:43:38;;;;;;;8.77;6.25;;;;;16.10;102345.00;;;;10349760;28;20206;-77
2021/10/08 15:48:39;;;;;;;9.05;5.57;;;;;15.90;102340.00;;;;10356676;28;20229;-77
2021/10/08 15:53:40;;;;;;;8.70;6.10;;;;;15.80;102343.00;;;;10322867;28;20227;-77
2021/10/08 15:58:41;;;;;;;7.97;6.80;;;;;15.70;102341.00;;;;10357836;28;20218;-77
2021/10/08 16:03:43;;;;;;;9.75;6.55;;;;;15.60;102340.00;;;;10339951;28;20290;-77
2021/10/08 16:08:44;;;;;;;10.50;7.10;;;;;15.50;102345.00;;;;10354274;28;20663;-77
2021/10/08 16:13:45;;;;;;;9.15;7.13;;;;;15.40;102348.00;;;;10351427;28;20210;-77
2021/10/08 16:18:48;;;;;;;10.93;7.43;;;;;15.20;102351.00;;;;10361005;28;20269;-77
2021/10/08 16:23:49;;;;;;;13.45;7.57;;;;;15.20;102350.00;;;;10340191;28;20203;-76
2021/10/08 16:28:51;;;;;;;12.53;8.80;;;;;15.10;102357.00;;;;10352993;28;20214;-77
2021/10/08 16:33:52;;;;;;;12.83;8.60;;;;;14.90;102363.00;;;;10333410;28;20250;-76
2021/10/08 16:38:53;;;;;;;12.87;8.63;;;;;14.70;102365.00;;;;10372257;28;20277;-77
2021/10/08 16:43:54;;;;;;;13.40;10.13;;;;;14.40;102376.00;;;;10338860;28;20261;-77
2021/10/08 16:48:55;;;;;;;13.00;10.33;;;;;14.10;102377.00;;;;10355709;28;20207;-77
2021/10/08 16:54:07;;;;;;;13.77;9.87;;;;;13.90;102384.00;;;;10354640;28;20254;-77
2021/10/08 16:59:08;;;;;;;15.07;10.57;;;;;13.60;102384.00;;;;10354583;28;20279;-77
2021/10/08 17:04:10;;;;;;;15.80;10.67;;;;;13.40;102389.00;;;;10364010;28;20207;-77
2021/10/08 17:09:11;;;;;;;16.37;10.93;;;;;13.20;102389.00;;;;10395263;28;20277;-76
2021/10/08 17:14:12;;;;;;;13.03;10.57;;;;;13.00;102389.00;;;;10376163;28;20691;-77
2021/10/08 17:19:14;;;;;;;14.97;10.60;;;;;12.80;102401.00;;;;10354406;28;20303;-77
2021/10/08 17:24:30;;;;;;;16.17;12.07;;;;;12.60;102394.00;;;;10384722;28;20239;-76
2021/10/08 17:34:45;;;;;;;17.50;13.47;;;;;12.20;102399.00;;;;10387768;28;20709;-77
2021/10/08 17:39:46;;;;;;;21.60;12.67;;;;;12.10;102400.00;;;;10366637;28;20698;-76
2021/10/08 17:44:48;;;;;;;20.17;13.97;;;;;12.00;102390.00;;;;10359697;28;20199;-77
2021/10/08 17:49:51;;;;;;;21.27;15.07;;;;;11.80;102395.00;;;;10365096;28;20666;-76
2021/10/08 17:54:52;;;;;;;23.17;15.10;;;;;11.70;102394.00;;;;10341385;28;20222;-76
2021/10/08 17:59:54;;;;;;;22.23;15.53;;;;;11.60;102401.00;;;;10335114;28;20219;-76
2021/10/08 18:04:55;;;;;;;29.43;18.10;;;;;11.50;102400.00;;;;10346088;28;20211;-77
2021/10/08 18:09:57;;;;;;;26.27;16.30;;;;;11.50;102396.00;;;;10348098;28;20245;-76
2021/10/08 18:14:58;;;;;;;26.77;17.80;;;;;11.40;102394.00;;;;10353452;28;20215;-76
2021/10/08 18:19:59;;;;;;;25.73;18.33;;;;;11.40;102394.00;;;;10346808;28;20212;-77
2021/10/08 18:25:02;;;;;;;28.10;20.23;;;;;11.40;102391.00;;;;10358833;28;20191;-77
2021/10/08 18:30:04;;;;;;;32.53;23.63;;;;;11.30;102381.00;;;;10381506;28;20293;-77
2021/10/08 18:35:05;;;;;;;30.27;22.43;;;;;11.30;102374.00;;;;10318351;28;20210;-77
2021/10/08 18:40:07;;;;;;;33.50;23.30;;;;;11.20;102382.00;;;;10346717;28;20219;-76
2021/10/08 18:45:13;;;;;;;31.23;22.80;;;;;11.20;102381.00;;;;10371851;28;20245;-76
2021/10/08 18:50:14;;;;;;;28.67;21.50;;;;;11.10;102375.00;;;;10361092;28;20207;-77
2021/10/08 18:55:16;;;;;;;32.53;22.27;;;;;11.00;102372.00;;;;10368568;28;20246;-76
2021/10/08 19:00:18;;;;;;;33.83;23.10;;;;;10.90;102362.00;;;;10337010;28;20215;-76
2021/10/08 19:05:19;;;;;;;32.20;22.53;;;;;10.90;102375.00;;;;10353761;28;20746;-76
2021/10/08 19:10:43;;;;;;;33.87;25.10;;;;;10.80;102371.00;;;;10381526;28;20256;-76
2021/10/08 19:20:45;;;;;;;34.90;26.27;;;;;10.60;102357.00;;;;10370019;28;20262;-76
2021/10/08 19:25:49;;;;;;;38.23;26.27;;;;;10.60;102358.00;;;;10385242;28;20252;-78
2021/10/08 19:30:52;;;;;;;40.97;27.30;;;;;10.50;102359.00;;;;10375849;28;20257;-77
2021/10/08 19:35:56;;;;;;;38.00;26.23;;;;;10.40;102355.00;;;;10343626;28;20972;-76
2021/10/08 19:40:57;;;;;;;36.63;27.33;;;;;10.30;102353.00;;;;10332615;28;20217;-77
2021/10/08 19:46:14;;;;;;;43.03;28.23;;;;;10.30;102353.00;;;;10317027;28;20858;-76
2021/10/08 19:51:15;;;;;;;40.47;29.03;;;;;10.30;102356.00;;;;10359761;28;20222;-77
2021/10/08 19:56:17;;;;;;;44.77;33.07;;;;;10.30;102343.00;;;;10343499;28;20232;-77
2021/10/08 20:01:20;;;;;;;46.40;31.90;;;;;10.30;102353.00;;;;10320904;28;20222;-77
2021/10/08 20:17:01;;;;;;;41.03;28.50;;;;;10.10;102350.00;;;;10367802;28;20207;-77
2021/10/08 20:22:11;;;;;;;42.40;28.93;;;;;10.00;102359.00;;;;10359684;28;20246;-76
2021/10/08 20:27:14;;;;;;;45.90;31.57;;;;;9.90;102351.00;;;;10304879;28;20201;-76
2021/10/08 20:32:15;;;;;;;44.93;32.10;;;;;9.80;102354.00;;;;10322729;28;20203;-79
2021/10/08 20:37:17;;;;;;;53.17;33.83;;;;;9.80;102351.00;;;;10309522;28;20215;-78
2021/10/08 20:42:18;;;;;;;47.23;32.77;;;;;9.70;102351.00;;;;10307198;28;20214;-76
2021/10/08 20:47:20;;;;;;;46.47;32.70;;;;;9.60;102352.00;;;;10297051;28;20216;-76
2021/10/08 20:52:21;;;;;;;46.73;31.67;;;;;9.60;102350.00;;;;10307160;28;20797;-76
2021/10/08 20:57:24;;;;;;;45.00;30.83;;;;;9.50;102341.00;;;;10315647;28;20741;-76
2021/10/08 21:02:25;;;;;;;45.13;30.20;;;;;9.40;102345.00;;;;10315860;28;20239;-77
2021/10/08 21:07:28;;;;;;;41.60;30.93;;;;;9.30;102335.00;;;;10275018;28;20233;-76
2021/10/08 21:12:29;;;;;;;47.20;32.57;;;;;9.20;102326.00;;;;10318759;28;20630;-76
2021/10/08 21:17:31;;;;;;;47.97;30.43;;;;;9.20;102336.00;;;;10299256;28;20288;-76
2021/10/08 21:22:33;;;;;;;47.40;30.43;;;;;9.10;102325.00;;;;10321517;28;20243;-76
2021/10/08 21:27:35;;;;;;;41.30;29.53;;;;;9.10;102331.00;;;;10285332;28;20206;-79
2021/10/08 21:32:37;;;;;;;42.77;29.03;;;;;9.00;102322.00;;;;10348999;28;20211;-77
2021/10/08 21:48:05;;;;;;;44.73;31.97;;;;;8.90;102331.00;;;;10335265;28;20223;-76
2021/10/08 21:53:06;;;;;;;43.13;29.40;;;;;8.80;102324.00;;;;10305114;28;20696;-79
2021/10/08 21:58:08;;;;;;;45.53;30.10;;;;;8.80;102324.00;;;;10314232;28;20222;-79
2021/10/08 22:03:09;;;;;;;47.00;29.47;;;;;8.80;102331.00;;;;10335818;28;20216;-79
2021/10/08 22:08:10;;;;;;;42.43;29.20;;;;;8.70;102329.00;;;;10299295;28;20207;-76
2021/10/08 22:13:11;;;;;;;43.57;28.93;;;;;8.60;102329.00;;;;10324984;28;20213;-78
2021/10/08 22:18:14;;;;;;;40.20;28.17;;;;;8.60;102327.00;;;;10317601;28;20199;-77
2021/10/08 22:28:55;;;;;;;40.40;28.50;;;;;8.50;102332.00;;;;10316355;28;20215;-78
2021/10/08 22:33:56;;;;;;;45.93;30.63;;;;;8.40;102325.00;;;;10343115;28;20678;-78
2021/10/08 22:38:58;;;;;;;47.47;31.37;;;;;8.30;102327.00;;;;10333412;28;20200;-78
2021/10/08 22:44:05;;;;;;;43.70;28.80;;;;;8.20;102321.00;;;;10317972;28;20290;-78
2021/10/08 22:49:06;;;;;;;37.50;26.53;;;;;8.20;102315.00;;;;10325432;28;20212;-78
2021/10/08 22:54:07;;;;;;;37.23;26.17;;;;;8.20;102309.00;;;;10330795;28;20219;-79
2021/10/08 22:59:09;;;;;;;38.53;28.00;;;;;8.10;102307.00;;;;10333635;28;20255;-78
2021/10/08 23:04:11;;;;;;;41.13;30.20;;;;;8.10;102308.00;;;;10316330;28;20194;-79
2021/10/08 23:09:27;;;;;;;40.27;28.53;;;;;8.10;102306.00;;;;10335434;28;20211;-79
2021/10/08 23:14:40;;;;;;;45.13;29.47;;;;;8.00;102310.00;;;;10325346;28;20199;-79
2021/10/08 23:19:41;;;;;;;43.23;28.67;;;;;8.00;102311.00;;;;10331070;28;20207;-78
2021/10/08 23:24:42;;;;;;;40.23;27.80;;;;;7.90;102317.00;;;;10332245;28;20195;-79
2021/10/08 23:29:44;;;;;;;40.10;27.23;;;;;7.90;102306.00;;;;10324349;28;20224;-79
2021/10/08 23:34:45;;;;;;;42.63;28.03;;;;;7.80;102303.00;;;;10314324;28;20211;-78
2021/10/08 23:39:46;;;;;;;44.23;29.53;;;;;7.80;102300.00;;;;10313688;28;20214;-79
2021/10/08 23:44:48;;;;;;;43.23;28.07;;;;;7.80;102312.00;;;;10343585;28;20199;-78
2021/10/08 23:49:49;;;;;;;41.73;29.30;;;;;7.70;102295.00;;;;10314736;28;20231;-79
2021/10/08 23:54:50;;;;;;;48.03;31.60;;;;;7.70;102307.00;;;;10295050;28;20683;-79
2021/10/08 23:59:51;;;;;;;48.03;32.53;;;;;7.70;102309.00;;;;10311450;28;20261;-78
